TimeCST,TemperatureF,Dew PointF,Humidity,Sea Level PressureIn,VisibilityMPH,Wind Direction,Wind SpeedMPH,Gust SpeedMPH,PrecipitationIn,Events,Conditions,WindDirDegrees,DateUTC
12:13 AM,17.6,10.4,73,30.39,10.0,Calm,Calm,-,N/A,,Clear,0,2012-12-05 06:13:00
12:33 AM,19.4,12.2,74,30.40,10.0,Calm,Calm,-,N/A,,Clear,0,2012-12-05 06:33:00
12:54 AM,17.6,8.6,68,30.40,10.0,Calm,Calm,-,N/A,,Clear,0,2012-12-05 06:54:00
1:13 AM,17.6,10.4,73,30.39,10.0,Calm,Calm,-,N/A,,Clear,0,2012-12-05 07:13:00
1:54 AM,15.8,8.6,73,30.39,10.0,Calm,Calm,-,N/A,,Clear,0,2012-12-05 07:54:00
2:13 AM,17.6,10.4,73,30.39,10.0,East,3.5,-,N/A,,Clear,90,2012-12-05 08:13:00
2:33 AM,19.4,14.0,80,30.39,10.0,ENE,5.8,-,N/A,,Clear,70,2012-12-05 08:33:00
2:54 AM,23.0,14.0,68,30.38,10.0,ENE,6.9,-,N/A,,Clear,70,2012-12-05 08:54:00
3:13 AM,23.0,14.0,68,30.39,10.0,East,6.9,-,N/A,,Clear,80,2012-12-05 09:13:00
3:33 AM,21.2,12.2,68,30.39,10.0,East,5.8,-,N/A,,Clear,90,2012-12-05 09:33:00
3:54 AM,21.2,12.2,68,30.39,10.0,ESE,4.6,-,N/A,,Clear,110,2012-12-05 09:54:00
4:13 AM,19.4,12.2,74,30.38,10.0,East,5.8,-,N/A,,Clear,80,2012-12-05 10:13:00
4:34 AM,19.4,12.2,74,30.38,10.0,East,5.8,-,N/A,,Clear,100,2012-12-05 10:34:00
4:53 AM,19.4,12.2,74,30.37,10.0,East,6.9,-,N/A,,Clear,90,2012-12-05 10:53:00
5:13 AM,21.2,12.2,68,30.37,10.0,East,6.9,-,N/A,,Clear,90,2012-12-05 11:13:00
5:33 AM,21.2,14.0,74,30.37,10.0,East,8.1,-,N/A,,Clear,80,2012-12-05 11:33:00
5:53 AM,23.0,14.0,68,30.37,10.0,East,10.4,-,N/A,,Clear,90,2012-12-05 11:53:00
6:13 AM,19.4,12.2,74,30.35,10.0,ESE,9.2,-,N/A,,Clear,110,2012-12-05 12:13:00
6:33 AM,19.4,12.2,74,30.35,10.0,ESE,8.1,-,N/A,,Clear,120,2012-12-05 12:33:00
6:54 AM,21.2,12.2,68,30.35,10.0,SE,10.4,-,N/A,,Clear,130,2012-12-05 12:54:00
8:33 AM,24.8,14.0,64,30.32,10.0,ESE,15.0,-,N/A,,Clear,110,2012-12-05 14:33:00
8:53 AM,24.8,14.0,64,30.32,10.0,ESE,17.3,-,N/A,,Clear,110,2012-12-05 14:53:00
9:14 AM,26.6,14.0,59,30.32,10.0,ESE,15.0,-,N/A,,Clear,120,2012-12-05 15:14:00
9:33 AM,28.4,14.0,55,30.31,10.0,ESE,13.8,19.6,N/A,,Clear,120,2012-12-05 15:33:00
9:53 AM,30.2,15.8,55,30.30,10.0,ESE,18.4,-,N/A,,Clear,110,2012-12-05 15:53:00
10:14 AM,32.0,15.8,51,30.29,10.0,SE,13.8,-,N/A,,Clear,130,2012-12-05 16:14:00
10:34 AM,32.0,14.0,48,30.28,10.0,SE,15.0,19.6,N/A,,Clear,130,2012-12-05 16:34:00
10:53 AM,33.8,15.8,48,30.27,10.0,SE,15.0,-,N/A,,Clear,140,2012-12-05 16:53:00
11:14 AM,33.8,14.0,44,30.25,10.0,SE,13.8,18.4,N/A,,Clear,130,2012-12-05 17:14:00
11:33 AM,35.6,14.0,41,30.23,10.0,SE,16.1,-,N/A,,Clear,140,2012-12-05 17:33:00
11:53 AM,35.6,15.8,44,30.22,10.0,SE,19.6,24.2,N/A,,Clear,140,2012-12-05 17:53:00
12:14 PM,39.2,17.6,42,30.22,10.0,SE,19.6,-,N/A,,Clear,140,2012-12-05 18:14:00
12:33 PM,39.2,15.8,39,30.20,10.0,SE,15.0,23.0,N/A,,Clear,140,2012-12-05 18:33:00
12:53 PM,39.2,15.8,39,30.17,10.0,SE,18.4,24.2,N/A,,Clear,140,2012-12-05 18:53:00
1:14 PM,39.2,14.0,36,30.16,10.0,SE,17.3,23.0,N/A,,Clear,140,2012-12-05 19:14:00
1:34 PM,39.2,15.8,39,30.15,10.0,SE,17.3,23.0,N/A,,Clear,140,2012-12-05 19:34:00
1:53 PM,41.0,17.6,39,30.13,10.0,SE,19.6,24.2,N/A,,Clear,140,2012-12-05 19:53:00
2:13 PM,41.0,17.6,39,30.11,10.0,SE,21.9,28.8,N/A,,Clear,130,2012-12-05 20:13:00
2:34 PM,41.0,17.6,39,30.10,10.0,SE,20.7,25.3,N/A,,Clear,130,2012-12-05 20:34:00
2:53 PM,41.0,17.6,39,30.09,10.0,SE,18.4,26.5,N/A,,Clear,140,2012-12-05 20:53:00
3:13 PM,41.0,17.6,39,30.08,10.0,SE,17.3,25.3,N/A,,Clear,140,2012-12-05 21:13:00
3:34 PM,41.0,17.6,39,30.08,10.0,SE,15.0,23.0,N/A,,Clear,130,2012-12-05 21:34:00
3:54 PM,41.0,19.4,42,30.08,10.0,SE,16.1,19.6,N/A,,Clear,140,2012-12-05 21:54:00
4:13 PM,41.0,19.4,42,30.06,10.0,SE,17.3,25.3,N/A,,Scattered Clouds,140,2012-12-05 22:13:00
4:33 PM,39.2,17.6,42,30.05,10.0,SE,19.6,26.5,N/A,,Clear,130,2012-12-05 22:33:00
4:54 PM,39.2,17.6,42,30.04,10.0,SE,21.9,26.5,N/A,,Clear,130,2012-12-05 22:54:00
5:14 PM,39.2,19.4,45,30.03,10.0,SE,21.9,27.6,N/A,,Clear,130,2012-12-05 23:14:00
5:33 PM,39.2,19.4,45,30.03,10.0,SE,19.6,27.6,N/A,,Scattered Clouds,140,2012-12-05 23:33:00
5:53 PM,39.2,19.4,45,30.01,10.0,SE,21.9,27.6,N/A,,Mostly Cloudy,130,2012-12-05 23:53:00
6:14 PM,39.2,19.4,45,29.99,10.0,SE,25.3,31.1,N/A,,Mostly Cloudy,140,2012-12-06 00:14:00
6:33 PM,39.2,19.4,45,29.98,10.0,SE,26.5,32.2,N/A,,Mostly Cloudy,140,2012-12-06 00:33:00
6:54 PM,39.2,19.4,45,29.98,10.0,SE,26.5,39.1,N/A,,Mostly Cloudy,140,2012-12-06 00:54:00
7:13 PM,39.2,19.4,45,29.98,10.0,SSE,21.9,34.5,N/A,,Overcast,150,2012-12-06 01:13:00
7:33 PM,39.2,21.2,49,29.98,10.0,SE,20.7,31.1,N/A,,Overcast,140,2012-12-06 01:33:00
7:54 PM,39.2,21.2,49,29.97,10.0,SE,23.0,32.2,N/A,,Overcast,140,2012-12-06 01:54:00
8:13 PM,39.2,21.2,49,29.96,10.0,SE,20.7,28.8,N/A,,Mostly Cloudy,140,2012-12-06 02:13:00
8:33 PM,39.2,21.2,49,29.95,10.0,SE,18.4,27.6,N/A,,Mostly Cloudy,140,2012-12-06 02:33:00
8:54 PM,39.2,21.2,49,29.96,10.0,SSE,16.1,25.3,N/A,,Mostly Cloudy,150,2012-12-06 02:54:00
9:13 PM,39.2,21.2,49,29.95,10.0,SSE,16.1,27.6,N/A,,Mostly Cloudy,150,2012-12-06 03:13:00
9:33 PM,39.2,23.0,52,29.94,10.0,SSE,17.3,21.9,N/A,,Mostly Cloudy,150,2012-12-06 03:33:00
9:53 PM,41.0,24.8,53,29.94,10.0,SSE,17.3,27.6,N/A,,Overcast,150,2012-12-06 03:53:00
10:14 PM,41.0,24.8,53,29.93,10.0,SSE,15.0,25.3,N/A,,Overcast,150,2012-12-06 04:14:00
10:33 PM,41.0,24.8,53,29.93,10.0,SSE,17.3,24.2,N/A,,Overcast,160,2012-12-06 04:33:00
10:53 PM,44.6,28.4,53,29.92,10.0,SSE,24.2,28.8,N/A,,Overcast,160,2012-12-06 04:53:00
11:13 PM,44.6,28.4,53,29.91,10.0,SSE,23.0,34.5,N/A,,Overcast,160,2012-12-06 05:13:00
11:33 PM,44.6,28.4,53,29.91,10.0,SSE,24.2,32.2,N/A,,Overcast,160,2012-12-06 05:33:00
11:53 PM,44.6,28.4,53,29.90,10.0,SSE,19.6,29.9,N/A,,Overcast,150,2012-12-06 05:53:00